sensor_id;sensor_type;location;lat;lon;timestamp;temperature;humidity
68215;DHT22;55036;52.138;5.236;2022-07-12T00:01:26;18.10;71.20
68215;DHT22;55036;52.138;5.236;2022-07-12T00:03:53;18.00;71.30
68215;DHT22;55036;52.138;5.236;2022-07-12T00:06:19;18.00;71.40
68215;DHT22;55036;52.138;5.236;2022-07-12T00:08:46;18.00;71.60
68215;DHT22;55036;52.138;5.236;2022-07-12T00:11:13;17.90;71.40
68215;DHT22;55036;52.138;5.236;2022-07-12T00:13:40;17.90;71.50
68215;DHT22;55036;52.138;5.236;2022-07-12T00:16:07;17.90;71.50
68215;DHT22;55036;52.138;5.236;2022-07-12T00:18:34;17.90;71.60
68215;DHT22;55036;52.138;5.236;2022-07-12T00:21:01;17.90;71.50
68215;DHT22;55036;52.138;5.236;2022-07-12T00:23:27;17.80;71.50
68215;DHT22;55036;52.138;5.236;2022-07-12T00:25:54;17.80;71.50
68215;DHT22;55036;52.138;5.236;2022-07-12T00:28:21;17.80;71.50
68215;DHT22;55036;52.138;5.236;2022-07-12T00:30:48;17.80;71.60
68215;DHT22;55036;52.138;5.236;2022-07-12T00:33:14;17.70;71.70
68215;DHT22;55036;52.138;5.236;2022-07-12T00:35:41;17.70;71.70
68215;DHT22;55036;52.138;5.236;2022-07-12T00:38:08;17.70;71.70
68215;DHT22;55036;52.138;5.236;2022-07-12T00:40:34;17.70;71.80
68215;DHT22;55036;52.138;5.236;2022-07-12T00:43:01;17.70;71.70
68215;DHT22;55036;52.138;5.236;2022-07-12T00:45:28;17.60;71.70
68215;DHT22;55036;52.138;5.236;2022-07-12T00:47:55;17.60;71.70
68215;DHT22;55036;52.138;5.236;2022-07-12T00:50:23;17.60;71.60
68215;DHT22;55036;52.138;5.236;2022-07-12T00:52:51;17.50;71.70
68215;DHT22;55036;52.138;5.236;2022-07-12T00:55:20;17.50;71.80
68215;DHT22;55036;52.138;5.236;2022-07-12T00:57:48;17.50;71.80
68215;DHT22;55036;52.138;5.236;2022-07-12T01:00:17;17.50;71.90
68215;DHT22;55036;52.138;5.236;2022-07-12T01:02:44;17.40;71.80
68215;DHT22;55036;52.138;5.236;2022-07-12T01:05:13;17.40;71.80
68215;DHT22;55036;52.138;5.236;2022-07-12T01:07:40;17.40;71.70
68215;DHT22;55036;52.138;5.236;2022-07-12T01:10:08;17.40;71.80
68215;DHT22;55036;52.138;5.236;2022-07-12T01:12:35;17.40;72.00
68215;DHT22;55036;52.138;5.236;2022-07-12T01:15:03;17.30;72.80
68215;DHT22;55036;52.138;5.236;2022-07-12T01:17:31;17.30;71.80
68215;DHT22;55036;52.138;5.236;2022-07-12T01:19:59;17.20;71.70
68215;DHT22;55036;52.138;5.236;2022-07-12T01:22:30;17.20;72.00
68215;DHT22;55036;52.138;5.236;2022-07-12T01:24:59;17.20;72.20
68215;DHT22;55036;52.138;5.236;2022-07-12T01:27:27;17.20;72.20
68215;DHT22;55036;52.138;5.236;2022-07-12T01:29:54;17.20;72.20
68215;DHT22;55036;52.138;5.236;2022-07-12T01:32:21;17.20;72.20
68215;DHT22;55036;52.138;5.236;2022-07-12T01:37:22;17.10;72.00
68215;DHT22;55036;52.138;5.236;2022-07-12T01:39:54;17.10;72.00
68215;DHT22;55036;52.138;5.236;2022-07-12T01:42:22;17.00;72.20
68215;DHT22;55036;52.138;5.236;2022-07-12T01:44:50;17.00;72.00
68215;DHT22;55036;52.138;5.236;2022-07-12T01:47:22;16.90;72.10
68215;DHT22;55036;52.138;5.236;2022-07-12T01:49:49;16.90;72.40
68215;DHT22;55036;52.138;5.236;2022-07-12T01:52:16;16.90;72.80
68215;DHT22;55036;52.138;5.236;2022-07-12T01:54:43;16.80;72.60
68215;DHT22;55036;52.138;5.236;2022-07-12T01:57:10;16.80;72.60
68215;DHT22;55036;52.138;5.236;2022-07-12T01:59:38;16.80;72.80
68215;DHT22;55036;52.138;5.236;2022-07-12T02:02:05;16.80;72.70
68215;DHT22;55036;52.138;5.236;2022-07-12T02:04:32;16.80;72.80
68215;DHT22;55036;52.138;5.236;2022-07-12T02:06:59;16.80;72.70
68215;DHT22;55036;52.138;5.236;2022-07-12T02:09:27;16.70;72.60
68215;DHT22;55036;52.138;5.236;2022-07-12T02:11:54;16.70;72.40
68215;DHT22;55036;52.138;5.236;2022-07-12T02:14:20;16.70;72.60
68215;DHT22;55036;52.138;5.236;2022-07-12T02:16:47;16.70;72.70
68215;DHT22;55036;52.138;5.236;2022-07-12T02:19:14;16.60;72.70
68215;DHT22;55036;52.138;5.236;2022-07-12T02:21:41;16.60;72.80
68215;DHT22;55036;52.138;5.236;2022-07-12T02:24:08;16.60;72.80
68215;DHT22;55036;52.138;5.236;2022-07-12T02:26:36;16.60;72.70
68215;DHT22;55036;52.138;5.236;2022-07-12T02:29:03;16.60;72.80
68215;DHT22;55036;52.138;5.236;2022-07-12T02:31:30;16.50;72.80
68215;DHT22;55036;52.138;5.236;2022-07-12T02:33:58;16.50;72.90
68215;DHT22;55036;52.138;5.236;2022-07-12T02:36:25;16.50;73.00
68215;DHT22;55036;52.138;5.236;2022-07-12T02:38:52;16.50;72.90
68215;DHT22;55036;52.138;5.236;2022-07-12T02:41:19;16.50;73.00
68215;DHT22;55036;52.138;5.236;2022-07-12T02:43:45;16.50;73.20
68215;DHT22;55036;52.138;5.236;2022-07-12T02:46:13;16.50;73.20
68215;DHT22;55036;52.138;5.236;2022-07-12T02:48:42;16.50;73.20
68215;DHT22;55036;52.138;5.236;2022-07-12T02:51:09;16.50;73.20
68215;DHT22;55036;52.138;5.236;2022-07-12T02:53:37;16.50;73.10
68215;DHT22;55036;52.138;5.236;2022-07-12T02:56:07;16.50;73.30
68215;DHT22;55036;52.138;5.236;2022-07-12T02:58:36;16.40;73.20
68215;DHT22;55036;52.138;5.236;2022-07-12T03:01:03;16.40;73.10
68215;DHT22;55036;52.138;5.236;2022-07-12T03:03:30;16.40;73.10
68215;DHT22;55036;52.138;5.236;2022-07-12T03:05:57;16.40;73.10
68215;DHT22;55036;52.138;5.236;2022-07-12T03:08:24;16.40;73.10
68215;DHT22;55036;52.138;5.236;2022-07-12T03:10:51;16.30;73.20
68215;DHT22;55036;52.138;5.236;2022-07-12T03:13:18;16.30;73.10
68215;DHT22;55036;52.138;5.236;2022-07-12T03:15:45;16.30;73.10
68215;DHT22;55036;52.138;5.236;2022-07-12T03:18:17;16.20;73.00
68215;DHT22;55036;52.138;5.236;2022-07-12T03:20:44;16.20;74.00
68215;DHT22;55036;52.138;5.236;2022-07-12T03:23:11;16.20;73.00
68215;DHT22;55036;52.138;5.236;2022-07-12T03:25:38;16.20;73.10
68215;DHT22;55036;52.138;5.236;2022-07-12T03:28:04;16.10;73.10
68215;DHT22;55036;52.138;5.236;2022-07-12T03:30:31;16.10;73.40
68215;DHT22;55036;52.138;5.236;2022-07-12T03:32:58;16.10;73.20
68215;DHT22;55036;52.138;5.236;2022-07-12T03:35:24;16.10;73.10
68215;DHT22;55036;52.138;5.236;2022-07-12T03:37:52;16.20;73.10
68215;DHT22;55036;52.138;5.236;2022-07-12T03:40:20;16.10;73.00
68215;DHT22;55036;52.138;5.236;2022-07-12T03:42:48;16.20;73.10
68215;DHT22;55036;52.138;5.236;2022-07-12T03:45:16;16.10;73.00
68215;DHT22;55036;52.138;5.236;2022-07-12T03:47:43;16.10;73.00
68215;DHT22;55036;52.138;5.236;2022-07-12T03:50:12;16.10;72.80
68215;DHT22;55036;52.138;5.236;2022-07-12T03:52:41;16.10;72.70
68215;DHT22;55036;52.138;5.236;2022-07-12T03:55:09;16.00;72.90
68215;DHT22;55036;52.138;5.236;2022-07-12T03:57:37;16.00;73.20
68215;DHT22;55036;52.138;5.236;2022-07-12T04:00:09;16.00;73.40
68215;DHT22;55036;52.138;5.236;2022-07-12T04:02:40;16.00;73.20
68215;DHT22;55036;52.138;5.236;2022-07-12T04:05:08;16.00;73.20
68215;DHT22;55036;52.138;5.236;2022-07-12T04:07:36;15.90;73.30
68215;DHT22;55036;52.138;5.236;2022-07-12T04:10:04;16.00;73.30
68215;DHT22;55036;52.138;5.236;2022-07-12T04:12:31;16.00;73.40
68215;DHT22;55036;52.138;5.236;2022-07-12T04:14:58;16.00;73.20
68215;DHT22;55036;52.138;5.236;2022-07-12T04:17:25;16.00;73.20
68215;DHT22;55036;52.138;5.236;2022-07-12T04:19:51;16.00;73.30
68215;DHT22;55036;52.138;5.236;2022-07-12T04:22:18;16.00;73.40
68215;DHT22;55036;52.138;5.236;2022-07-12T04:24:45;16.00;73.40
68215;DHT22;55036;52.138;5.236;2022-07-12T04:27:12;16.00;73.40
68215;DHT22;55036;52.138;5.236;2022-07-12T04:29:39;16.00;73.40
68215;DHT22;55036;52.138;5.236;2022-07-12T04:32:06;16.10;73.50
68215;DHT22;55036;52.138;5.236;2022-07-12T04:34:33;16.10;73.50
68215;DHT22;55036;52.138;5.236;2022-07-12T04:37:00;16.10;73.50
68215;DHT22;55036;52.138;5.236;2022-07-12T04:39:26;16.10;73.70
68215;DHT22;55036;52.138;5.236;2022-07-12T04:41:53;16.20;73.70
68215;DHT22;55036;52.138;5.236;2022-07-12T04:44:20;16.30;73.60
68215;DHT22;55036;52.138;5.236;2022-07-12T04:46:47;16.40;73.50
68215;DHT22;55036;52.138;5.236;2022-07-12T04:49:14;16.50;73.50
68215;DHT22;55036;52.138;5.236;2022-07-12T04:51:40;16.50;73.40
68215;DHT22;55036;52.138;5.236;2022-07-12T04:54:08;16.60;73.50
68215;DHT22;55036;52.138;5.236;2022-07-12T04:56:34;16.70;73.30
68215;DHT22;55036;52.138;5.236;2022-07-12T04:59:01;16.80;73.30
68215;DHT22;55036;52.138;5.236;2022-07-12T05:01:29;16.90;73.20
68215;DHT22;55036;52.138;5.236;2022-07-12T05:03:56;17.00;73.30
68215;DHT22;55036;52.138;5.236;2022-07-12T05:06:23;17.20;73.70
68215;DHT22;55036;52.138;5.236;2022-07-12T05:08:50;17.40;74.00
68215;DHT22;55036;52.138;5.236;2022-07-12T05:11:17;17.60;74.10
68215;DHT22;55036;52.138;5.236;2022-07-12T05:13:44;17.90;74.00
68215;DHT22;55036;52.138;5.236;2022-07-12T05:16:11;18.20;73.50
68215;DHT22;55036;52.138;5.236;2022-07-12T05:18:38;18.40;73.30
68215;DHT22;55036;52.138;5.236;2022-07-12T05:21:05;18.70;73.00
68215;DHT22;55036;52.138;5.236;2022-07-12T05:23:31;19.00;72.60
68215;DHT22;55036;52.138;5.236;2022-07-12T05:25:58;19.20;72.10
68215;DHT22;55036;52.138;5.236;2022-07-12T05:28:25;19.50;71.90
68215;DHT22;55036;52.138;5.236;2022-07-12T05:30:52;19.70;71.90
68215;DHT22;55036;52.138;5.236;2022-07-12T05:33:19;20.00;71.70
68215;DHT22;55036;52.138;5.236;2022-07-12T05:35:45;20.20;71.00
68215;DHT22;55036;52.138;5.236;2022-07-12T05:38:13;20.20;70.50
68215;DHT22;55036;52.138;5.236;2022-07-12T05:40:40;20.30;70.60
68215;DHT22;55036;52.138;5.236;2022-07-12T05:43:06;20.30;70.60
68215;DHT22;55036;52.138;5.236;2022-07-12T05:45:33;20.50;70.70
68215;DHT22;55036;52.138;5.236;2022-07-12T05:48:00;20.60;70.50
68215;DHT22;55036;52.138;5.236;2022-07-12T05:50:26;20.70;70.40
68215;DHT22;55036;52.138;5.236;2022-07-12T05:52:53;20.80;70.10
68215;DHT22;55036;52.138;5.236;2022-07-12T05:55:39;21.00;70.20
68215;DHT22;55036;52.138;5.236;2022-07-12T05:58:06;21.10;69.90
68215;DHT22;55036;52.138;5.236;2022-07-12T06:00:33;21.20;70.40
68215;DHT22;55036;52.138;5.236;2022-07-12T06:02:59;21.30;69.10
68215;DHT22;55036;52.138;5.236;2022-07-12T06:05:26;21.30;69.20
68215;DHT22;55036;52.138;5.236;2022-07-12T06:07:53;21.30;68.90
68215;DHT22;55036;52.138;5.236;2022-07-12T06:10:20;21.20;69.40
68215;DHT22;55036;52.138;5.236;2022-07-12T06:12:47;21.30;69.70
68215;DHT22;55036;52.138;5.236;2022-07-12T06:15:14;21.50;69.40
68215;DHT22;55036;52.138;5.236;2022-07-12T06:17:41;21.70;69.20
68215;DHT22;55036;52.138;5.236;2022-07-12T06:20:08;21.90;68.90
68215;DHT22;55036;52.138;5.236;2022-07-12T06:22:35;22.10;68.60
68215;DHT22;55036;52.138;5.236;2022-07-12T06:25:02;22.30;67.30
68215;DHT22;55036;52.138;5.236;2022-07-12T06:27:50;22.50;67.90
68215;DHT22;55036;52.138;5.236;2022-07-12T06:30:18;22.70;66.50
68215;DHT22;55036;52.138;5.236;2022-07-12T06:32:45;22.60;66.40
68215;DHT22;55036;52.138;5.236;2022-07-12T06:35:14;22.70;66.80
68215;DHT22;55036;52.138;5.236;2022-07-12T06:37:41;22.70;66.30
68215;DHT22;55036;52.138;5.236;2022-07-12T06:40:08;22.70;66.30
68215;DHT22;55036;52.138;5.236;2022-07-12T06:42:35;22.80;66.40
68215;DHT22;55036;52.138;5.236;2022-07-12T06:45:03;22.80;66.10
68215;DHT22;55036;52.138;5.236;2022-07-12T06:47:30;22.80;65.30
68215;DHT22;55036;52.138;5.236;2022-07-12T06:49:56;22.70;65.80
68215;DHT22;55036;52.138;5.236;2022-07-12T06:52:23;22.70;65.30
68215;DHT22;55036;52.138;5.236;2022-07-12T06:54:58;22.60;65.30
68215;DHT22;55036;52.138;5.236;2022-07-12T06:57:25;22.60;64.90
68215;DHT22;55036;52.138;5.236;2022-07-12T06:59:56;22.50;65.70
68215;DHT22;55036;52.138;5.236;2022-07-12T07:02:23;22.60;65.50
68215;DHT22;55036;52.138;5.236;2022-07-12T07:04:50;22.50;65.60
68215;DHT22;55036;52.138;5.236;2022-07-12T07:07:17;22.60;65.50
68215;DHT22;55036;52.138;5.236;2022-07-12T07:09:44;22.60;65.30
68215;DHT22;55036;52.138;5.236;2022-07-12T07:12:11;22.60;65.20
68215;DHT22;55036;52.138;5.236;2022-07-12T07:14:38;22.50;65.70
68215;DHT22;55036;52.138;5.236;2022-07-12T07:17:04;22.60;65.60
68215;DHT22;55036;52.138;5.236;2022-07-12T07:19:31;22.70;65.60
68215;DHT22;55036;52.138;5.236;2022-07-12T07:21:58;22.80;65.60
68215;DHT22;55036;52.138;5.236;2022-07-12T07:24:25;23.00;65.50
68215;DHT22;55036;52.138;5.236;2022-07-12T07:26:52;23.00;65.00
68215;DHT22;55036;52.138;5.236;2022-07-12T07:29:24;23.10;65.30
68215;DHT22;55036;52.138;5.236;2022-07-12T07:32:09;23.30;65.00
68215;DHT22;55036;52.138;5.236;2022-07-12T07:34:36;23.40;64.50
68215;DHT22;55036;52.138;5.236;2022-07-12T07:37:03;23.40;63.50
68215;DHT22;55036;52.138;5.236;2022-07-12T07:39:30;23.40;63.70
68215;DHT22;55036;52.138;5.236;2022-07-12T07:41:57;23.50;64.00
68215;DHT22;55036;52.138;5.236;2022-07-12T07:44:24;23.60;63.30
68215;DHT22;55036;52.138;5.236;2022-07-12T07:46:59;23.60;62.80
68215;DHT22;55036;52.138;5.236;2022-07-12T07:49:26;23.60;62.60
68215;DHT22;55036;52.138;5.236;2022-07-12T07:51:53;23.60;64.00
68215;DHT22;55036;52.138;5.236;2022-07-12T07:54:19;23.70;62.50
68215;DHT22;55036;52.138;5.236;2022-07-12T07:56:46;23.60;62.50
68215;DHT22;55036;52.138;5.236;2022-07-12T07:59:13;23.80;62.60
68215;DHT22;55036;52.138;5.236;2022-07-12T08:01:40;24.00;62.20
68215;DHT22;55036;52.138;5.236;2022-07-12T08:04:12;24.00;61.70
68215;DHT22;55036;52.138;5.236;2022-07-12T08:06:40;24.20;61.90
68215;DHT22;55036;52.138;5.236;2022-07-12T08:09:07;24.10;61.20
68215;DHT22;55036;52.138;5.236;2022-07-12T08:11:39;24.30;61.30
68215;DHT22;55036;52.138;5.236;2022-07-12T08:14:06;24.20;60.10
68215;DHT22;55036;52.138;5.236;2022-07-12T08:16:34;24.10;60.00
68215;DHT22;55036;52.138;5.236;2022-07-12T08:19:01;24.10;60.50
68215;DHT22;55036;52.138;5.236;2022-07-12T08:21:28;24.10;61.00
68215;DHT22;55036;52.138;5.236;2022-07-12T08:23:55;24.20;61.40
68215;DHT22;55036;52.138;5.236;2022-07-12T08:26:22;24.40;60.70
68215;DHT22;55036;52.138;5.236;2022-07-12T08:28:49;24.60;61.10
68215;DHT22;55036;52.138;5.236;2022-07-12T08:31:17;24.70;60.70
68215;DHT22;55036;52.138;5.236;2022-07-12T08:33:44;24.90;60.00
68215;DHT22;55036;52.138;5.236;2022-07-12T08:36:11;25.00;59.80
68215;DHT22;55036;52.138;5.236;2022-07-12T08:38:38;25.20;59.70
68215;DHT22;55036;52.138;5.236;2022-07-12T08:41:07;25.10;58.40
68215;DHT22;55036;52.138;5.236;2022-07-12T08:43:36;25.20;58.60
68215;DHT22;55036;52.138;5.236;2022-07-12T08:46:08;25.40;57.90
68215;DHT22;55036;52.138;5.236;2022-07-12T08:48:35;25.50;57.10
68215;DHT22;55036;52.138;5.236;2022-07-12T08:51:07;25.60;58.10
68215;DHT22;55036;52.138;5.236;2022-07-12T08:53:34;25.80;58.30
68215;DHT22;55036;52.138;5.236;2022-07-12T08:56:03;26.10;57.90
68215;DHT22;55036;52.138;5.236;2022-07-12T08:58:30;26.00;55.60
68215;DHT22;55036;52.138;5.236;2022-07-12T09:00:57;26.20;55.90
68215;DHT22;55036;52.138;5.236;2022-07-12T09:03:24;26.40;53.80
68215;DHT22;55036;52.138;5.236;2022-07-12T09:05:53;26.40;53.30
68215;DHT22;55036;52.138;5.236;2022-07-12T09:08:28;26.30;54.80
68215;DHT22;55036;52.138;5.236;2022-07-12T09:11:04;26.30;52.50
68215;DHT22;55036;52.138;5.236;2022-07-12T09:13:52;26.30;53.20
68215;DHT22;55036;52.138;5.236;2022-07-12T09:16:25;26.50;53.10
68215;DHT22;55036;52.138;5.236;2022-07-12T09:19:15;26.50;52.90
68215;DHT22;55036;52.138;5.236;2022-07-12T09:21:51;26.40;52.40
68215;DHT22;55036;52.138;5.236;2022-07-12T09:24:19;26.60;52.60
68215;DHT22;55036;52.138;5.236;2022-07-12T09:26:46;26.60;51.30
68215;DHT22;55036;52.138;5.236;2022-07-12T09:29:13;26.70;51.10
68215;DHT22;55036;52.138;5.236;2022-07-12T09:31:43;26.70;51.10
68215;DHT22;55036;52.138;5.236;2022-07-12T09:34:30;26.90;50.80
68215;DHT22;55036;52.138;5.236;2022-07-12T09:37:16;27.10;51.10
68215;DHT22;55036;52.138;5.236;2022-07-12T09:39:44;27.20;50.80
68215;DHT22;55036;52.138;5.236;2022-07-12T09:42:12;27.40;50.80
68215;DHT22;55036;52.138;5.236;2022-07-12T09:44:40;27.50;49.50
68215;DHT22;55036;52.138;5.236;2022-07-12T09:47:10;27.70;48.70
68215;DHT22;55036;52.138;5.236;2022-07-12T09:49:41;27.50;45.80
68215;DHT22;55036;52.138;5.236;2022-07-12T09:52:15;27.50;47.50
68215;DHT22;55036;52.138;5.236;2022-07-12T09:54:46;27.60;47.20
68215;DHT22;55036;52.138;5.236;2022-07-12T09:57:19;27.70;46.10
68215;DHT22;55036;52.138;5.236;2022-07-12T09:59:47;27.60;46.10
68215;DHT22;55036;52.138;5.236;2022-07-12T10:02:16;27.60;45.70
68215;DHT22;55036;52.138;5.236;2022-07-12T10:04:46;27.60;46.60
68215;DHT22;55036;52.138;5.236;2022-07-12T10:07:12;27.60;46.80
68215;DHT22;55036;52.138;5.236;2022-07-12T10:09:58;27.80;46.60
68215;DHT22;55036;52.138;5.236;2022-07-12T10:12:25;28.00;45.00
68215;DHT22;55036;52.138;5.236;2022-07-12T10:14:57;28.00;45.20
68215;DHT22;55036;52.138;5.236;2022-07-12T10:17:26;28.10;44.90
68215;DHT22;55036;52.138;5.236;2022-07-12T10:20:31;28.20;45.40
68215;DHT22;55036;52.138;5.236;2022-07-12T10:23:31;28.40;44.80
68215;DHT22;55036;52.138;5.236;2022-07-12T10:26:24;28.40;43.10
68215;DHT22;55036;52.138;5.236;2022-07-12T10:28:55;28.30;44.00
68215;DHT22;55036;52.138;5.236;2022-07-12T10:31:29;28.40;43.30
68215;DHT22;55036;52.138;5.236;2022-07-12T10:34:20;28.20;42.70
68215;DHT22;55036;52.138;5.236;2022-07-12T10:40:16;28.10;44.60
68215;DHT22;55036;52.138;5.236;2022-07-12T10:45:32;27.90;45.30
68215;DHT22;55036;52.138;5.236;2022-07-12T10:48:01;28.00;45.90
68215;DHT22;55036;52.138;5.236;2022-07-12T11:01:03;28.30;44.30
68215;DHT22;55036;52.138;5.236;2022-07-12T11:03:45;28.10;45.00
68215;DHT22;55036;52.138;5.236;2022-07-12T11:06:15;28.20;43.40
68215;DHT22;55036;52.138;5.236;2022-07-12T11:08:52;28.10;43.40
68215;DHT22;55036;52.138;5.236;2022-07-12T11:11:20;28.20;44.20
68215;DHT22;55036;52.138;5.236;2022-07-12T11:13:49;28.30;44.10
68215;DHT22;55036;52.138;5.236;2022-07-12T11:16:16;28.50;44.80
68215;DHT22;55036;52.138;5.236;2022-07-12T11:18:44;28.70;43.90
68215;DHT22;55036;52.138;5.236;2022-07-12T11:21:11;28.80;43.20
68215;DHT22;55036;52.138;5.236;2022-07-12T11:23:39;28.90;43.30
68215;DHT22;55036;52.138;5.236;2022-07-12T11:26:08;28.90;41.30
68215;DHT22;55036;52.138;5.236;2022-07-12T11:28:36;28.90;41.60
68215;DHT22;55036;52.138;5.236;2022-07-12T11:31:05;29.00;42.30
68215;DHT22;55036;52.138;5.236;2022-07-12T11:33:34;29.10;41.10
68215;DHT22;55036;52.138;5.236;2022-07-12T11:36:04;29.10;41.60
68215;DHT22;55036;52.138;5.236;2022-07-12T11:38:31;29.30;40.10
68215;DHT22;55036;52.138;5.236;2022-07-12T11:41:06;29.20;39.50
68215;DHT22;55036;52.138;5.236;2022-07-12T11:43:34;29.40;38.80
68215;DHT22;55036;52.138;5.236;2022-07-12T11:46:04;29.30;35.50
68215;DHT22;55036;52.138;5.236;2022-07-12T11:48:31;29.40;37.10
68215;DHT22;55036;52.138;5.236;2022-07-12T11:51:08;29.30;37.50
68215;DHT22;55036;52.138;5.236;2022-07-12T11:53:36;29.40;38.80
68215;DHT22;55036;52.138;5.236;2022-07-12T11:56:04;29.40;38.70
68215;DHT22;55036;52.138;5.236;2022-07-12T11:58:33;29.30;37.80
68215;DHT22;55036;52.138;5.236;2022-07-12T12:01:00;29.40;39.60
68215;DHT22;55036;52.138;5.236;2022-07-12T12:03:27;29.50;40.10
68215;DHT22;55036;52.138;5.236;2022-07-12T12:05:56;29.60;38.80
68215;DHT22;55036;52.138;5.236;2022-07-12T12:08:23;29.60;39.70
68215;DHT22;55036;52.138;5.236;2022-07-12T12:11:00;29.50;40.70
68215;DHT22;55036;52.138;5.236;2022-07-12T12:13:28;29.50;40.80
68215;DHT22;55036;52.138;5.236;2022-07-12T12:15:56;29.70;40.80
68215;DHT22;55036;52.138;5.236;2022-07-12T12:18:42;29.80;39.40
68215;DHT22;55036;52.138;5.236;2022-07-12T12:21:12;29.40;39.30
68215;DHT22;55036;52.138;5.236;2022-07-12T12:23:42;29.60;39.80
68215;DHT22;55036;52.138;5.236;2022-07-12T12:26:14;29.70;40.30
68215;DHT22;55036;52.138;5.236;2022-07-12T12:28:43;29.80;39.00
68215;DHT22;55036;52.138;5.236;2022-07-12T12:31:12;29.80;39.70
68215;DHT22;55036;52.138;5.236;2022-07-12T12:33:44;29.90;39.50
68215;DHT22;55036;52.138;5.236;2022-07-12T12:36:16;30.20;39.00
68215;DHT22;55036;52.138;5.236;2022-07-12T12:38:44;30.20;37.10
68215;DHT22;55036;52.138;5.236;2022-07-12T12:41:11;30.20;36.30
68215;DHT22;55036;52.138;5.236;2022-07-12T12:43:39;30.30;36.80
68215;DHT22;55036;52.138;5.236;2022-07-12T12:46:06;30.30;37.60
68215;DHT22;55036;52.138;5.236;2022-07-12T12:48:34;30.30;37.30
68215;DHT22;55036;52.138;5.236;2022-07-12T12:51:10;30.30;37.10
68215;DHT22;55036;52.138;5.236;2022-07-12T12:53:38;30.30;37.10
68215;DHT22;55036;52.138;5.236;2022-07-12T12:56:11;30.40;36.30
68215;DHT22;55036;52.138;5.236;2022-07-12T12:58:38;30.40;34.80
68215;DHT22;55036;52.138;5.236;2022-07-12T13:01:07;30.50;34.90
68215;DHT22;55036;52.138;5.236;2022-07-12T13:03:34;30.30;34.90
68215;DHT22;55036;52.138;5.236;2022-07-12T13:06:01;30.20;35.00
68215;DHT22;55036;52.138;5.236;2022-07-12T13:08:28;29.90;35.90
68215;DHT22;55036;52.138;5.236;2022-07-12T13:10:55;30.00;36.40
68215;DHT22;55036;52.138;5.236;2022-07-12T13:13:40;30.20;36.60
68215;DHT22;55036;52.138;5.236;2022-07-12T13:16:07;30.20;35.40
68215;DHT22;55036;52.138;5.236;2022-07-12T13:18:34;30.20;35.30
68215;DHT22;55036;52.138;5.236;2022-07-12T13:21:01;30.10;34.90
68215;DHT22;55036;52.138;5.236;2022-07-12T13:23:28;30.10;35.00
68215;DHT22;55036;52.138;5.236;2022-07-12T13:25:55;30.00;35.30
68215;DHT22;55036;52.138;5.236;2022-07-12T13:28:22;30.00;35.90
68215;DHT22;55036;52.138;5.236;2022-07-12T13:30:49;29.90;35.50
68215;DHT22;55036;52.138;5.236;2022-07-12T13:33:16;30.00;35.40
68215;DHT22;55036;52.138;5.236;2022-07-12T13:35:43;30.10;35.60
68215;DHT22;55036;52.138;5.236;2022-07-12T13:38:10;30.10;35.50
68215;DHT22;55036;52.138;5.236;2022-07-12T13:40:36;30.10;35.60
68215;DHT22;55036;52.138;5.236;2022-07-12T13:43:03;30.00;36.00
68215;DHT22;55036;52.138;5.236;2022-07-12T13:45:30;29.80;36.90
68215;DHT22;55036;52.138;5.236;2022-07-12T13:48:00;29.80;37.80
68215;DHT22;55036;52.138;5.236;2022-07-12T13:50:28;29.80;37.80
68215;DHT22;55036;52.138;5.236;2022-07-12T13:52:58;29.80;37.40
68215;DHT22;55036;52.138;5.236;2022-07-12T13:55:27;29.80;37.50
68215;DHT22;55036;52.138;5.236;2022-07-12T13:57:54;29.90;37.50
68215;DHT22;55036;52.138;5.236;2022-07-12T14:00:21;29.90;37.20
68215;DHT22;55036;52.138;5.236;2022-07-12T14:02:49;30.00;37.80
68215;DHT22;55036;52.138;5.236;2022-07-12T14:05:20;30.10;37.80
68215;DHT22;55036;52.138;5.236;2022-07-12T14:07:47;30.00;37.70
68215;DHT22;55036;52.138;5.236;2022-07-12T14:10:14;30.00;37.50
68215;DHT22;55036;52.138;5.236;2022-07-12T14:12:42;29.90;37.80
68215;DHT22;55036;52.138;5.236;2022-07-12T14:15:09;30.00;37.80
68215;DHT22;55036;52.138;5.236;2022-07-12T14:20:07;29.90;37.80
68215;DHT22;55036;52.138;5.236;2022-07-12T14:22:36;29.80;37.60
68215;DHT22;55036;52.138;5.236;2022-07-12T14:25:05;29.80;37.90
68215;DHT22;55036;52.138;5.236;2022-07-12T14:27:36;29.70;37.50
68215;DHT22;55036;52.138;5.236;2022-07-12T14:30:04;29.60;36.60
68215;DHT22;55036;52.138;5.236;2022-07-12T14:32:32;29.60;36.70
68215;DHT22;55036;52.138;5.236;2022-07-12T14:34:59;29.40;36.90
68215;DHT22;55036;52.138;5.236;2022-07-12T14:37:26;29.50;37.20
68215;DHT22;55036;52.138;5.236;2022-07-12T14:39:53;29.60;37.10
68215;DHT22;55036;52.138;5.236;2022-07-12T14:42:20;29.50;36.70
68215;DHT22;55036;52.138;5.236;2022-07-12T14:44:47;29.40;38.00
68215;DHT22;55036;52.138;5.236;2022-07-12T14:47:19;29.40;37.30
68215;DHT22;55036;52.138;5.236;2022-07-12T14:49:46;29.40;37.50
68215;DHT22;55036;52.138;5.236;2022-07-12T14:52:13;29.20;37.20
68215;DHT22;55036;52.138;5.236;2022-07-12T14:54:40;29.20;37.60
68215;DHT22;55036;52.138;5.236;2022-07-12T14:57:07;29.10;37.50
68215;DHT22;55036;52.138;5.236;2022-07-12T14:59:34;29.20;38.00
68215;DHT22;55036;52.138;5.236;2022-07-12T15:02:01;29.10;37.90
68215;DHT22;55036;52.138;5.236;2022-07-12T15:04:28;29.10;37.70
68215;DHT22;55036;52.138;5.236;2022-07-12T15:06:55;29.10;37.50
68215;DHT22;55036;52.138;5.236;2022-07-12T15:09:22;29.00;36.90
68215;DHT22;55036;52.138;5.236;2022-07-12T15:11:49;28.90;37.90
68215;DHT22;55036;52.138;5.236;2022-07-12T15:14:16;28.80;37.60
68215;DHT22;55036;52.138;5.236;2022-07-12T15:16:43;28.80;38.20
68215;DHT22;55036;52.138;5.236;2022-07-12T15:19:10;28.80;38.30
68215;DHT22;55036;52.138;5.236;2022-07-12T15:21:37;28.90;38.70
68215;DHT22;55036;52.138;5.236;2022-07-12T15:24:03;28.90;38.40
68215;DHT22;55036;52.138;5.236;2022-07-12T15:26:30;28.90;38.10
68215;DHT22;55036;52.138;5.236;2022-07-12T15:29:00;29.00;38.40
68215;DHT22;55036;52.138;5.236;2022-07-12T15:31:29;29.10;38.10
68215;DHT22;55036;52.138;5.236;2022-07-12T15:33:57;29.10;38.00
68215;DHT22;55036;52.138;5.236;2022-07-12T15:36:24;29.10;38.00
68215;DHT22;55036;52.138;5.236;2022-07-12T15:38:51;29.10;37.90
68215;DHT22;55036;52.138;5.236;2022-07-12T15:41:18;29.20;38.20
68215;DHT22;55036;52.138;5.236;2022-07-12T15:43:45;29.20;38.50
68215;DHT22;55036;52.138;5.236;2022-07-12T15:46:13;29.10;38.20
68215;DHT22;55036;52.138;5.236;2022-07-12T15:48:40;29.10;38.20
68215;DHT22;55036;52.138;5.236;2022-07-12T15:51:10;29.00;38.00
68215;DHT22;55036;52.138;5.236;2022-07-12T15:53:38;29.00;38.10
68215;DHT22;55036;52.138;5.236;2022-07-12T15:56:07;29.00;38.40
68215;DHT22;55036;52.138;5.236;2022-07-12T15:58:39;28.90;38.40
68215;DHT22;55036;52.138;5.236;2022-07-12T16:01:08;28.90;38.50